Time;durP1;ratioP1;P1;durP2;ratioP2;P2;SDS_P1;SDS_P2;PMS_P1;PMS_P2;Temp;Humidity;BMP_temperature;BMP_pressure;BME280_temperature;BME280_humidity;BME280_pressure;Samples;Min_cycle;Max_cycle;Signal;HPM_P1;HPM_P2
2022/11/19 00:01:56;;;;;;;;;6.00;4.25;;;;;10.78;62.73;100529.19;4992177;28;45882;-68
2022/11/19 00:04:26;;;;;;;;;6.25;4.75;;;;;10.82;63.75;100528.31;4994363;28;45394;-68
2022/11/19 00:06:51;;;;;;;;;4.25;4.25;;;;;10.86;63.40;100542.25;4995831;28;45427;-68
2022/11/19 00:09:17;;;;;;;;;7.50;6.75;;;;;10.80;62.81;100537.94;4989879;28;45356;-67
2022/11/19 00:14:33;;;;;;;;;6.25;5.75;;;;;10.70;63.17;100530.06;4996080;28;45537;-67
2022/11/19 00:17:02;;;;;;;;;6.25;6.25;;;;;10.61;63.41;100523.13;4995528;28;45639;-65
2022/11/19 00:19:41;;;;;;;;;6.50;5.25;;;;;10.73;63.65;100541.44;4990223;28;45525;-67
2022/11/19 00:22:07;;;;;;;;;5.00;3.00;;;;;10.73;63.65;100544.06;4992889;28;45409;-66
2022/11/19 00:24:36;;;;;;;;;4.50;4.50;;;;;10.40;63.28;100488.22;4992269;28;45493;-67
2022/11/19 00:27:04;;;;;;;;;8.50;6.75;;;;;10.59;63.81;100538.81;4992984;28;45567;-71
2022/11/19 00:29:30;;;;;;;;;6.50;6.50;;;;;10.47;64.14;100533.59;4991708;28;45686;-69
2022/11/19 00:31:56;;;;;;;;;10.00;6.25;;;;;10.50;64.34;100524.88;5003118;28;48011;-67
2022/11/19 00:34:21;;;;;;;;;8.75;4.25;;;;;10.49;64.17;100536.22;5005590;28;45775;-66
2022/11/19 00:36:47;;;;;;;;;9.50;4.25;;;;;10.39;64.85;100540.56;4996321;28;45485;-68
2022/11/19 00:39:12;;;;;;;;;6.00;5.25;;;;;10.40;65.25;100534.47;5001755;28;45386;-66
2022/11/19 00:41:38;;;;;;;;;6.00;4.25;;;;;10.45;64.56;100534.47;4999324;28;45740;-66
2022/11/19 00:44:03;;;;;;;;;4.25;2.75;;;;;10.48;64.56;100539.72;5005518;28;45588;-67
2022/11/19 00:46:30;;;;;;;;;4.25;4.00;;;;;10.40;65.16;100521.41;4992251;28;45778;-67
2022/11/19 00:48:57;;;;;;;;;6.75;5.00;;;;;10.42;65.22;100539.69;4993524;28;45509;-67
2022/11/19 00:51:25;;;;;;;;;4.25;3.75;;;;;10.46;65.02;100538.84;4993907;28;46200;-67
2022/11/19 00:53:51;;;;;;;;;5.00;5.00;;;;;10.46;64.07;100544.06;4995349;28;45596;-67
2022/11/19 00:56:28;;;;;;;;;5.25;4.50;;;;;10.46;64.58;100537.09;4992199;28;45655;-68
2022/11/19 00:58:54;;;;;;;;;7.00;6.25;;;;;10.48;64.65;100544.94;4991878;28;45564;-69
2022/11/19 01:01:22;;;;;;;;;7.25;4.00;;;;;10.48;64.43;100540.56;4990749;28;47279;-66
2022/11/19 01:03:48;;;;;;;;;8.00;5.00;;;;;10.47;64.83;100532.75;4994130;28;45488;-67
2022/11/19 01:06:16;;;;;;;;;7.75;5.00;;;;;10.52;64.52;100538.84;4992969;28;45480;-68
2022/11/19 01:08:42;;;;;;;;;4.25;4.25;;;;;10.38;64.66;100515.28;4997966;28;45868;-66
2022/11/19 01:11:13;;;;;;;;;4.75;4.25;;;;;10.51;64.95;100545.84;5005258;28;45647;-68
2022/11/19 01:13:40;;;;;;;;;6.00;5.00;;;;;10.32;64.98;100524.03;4991465;28;45594;-67
2022/11/19 01:16:12;;;;;;;;;5.50;3.50;;;;;10.44;64.71;100535.34;4996860;28;45694;-67
2022/11/19 01:18:39;;;;;;;;;4.00;3.50;;;;;10.46;65.33;100550.16;5001100;28;45664;-66
2022/11/19 01:21:06;;;;;;;;;4.25;4.25;;;;;10.46;65.12;100565.88;4996550;28;45421;-68
2022/11/19 01:23:32;;;;;;;;;6.75;4.50;;;;;10.45;64.86;100552.81;4992302;28;45545;-68
2022/11/19 01:26:06;;;;;;;;;7.00;5.00;;;;;10.48;64.99;100566.75;4999018;28;45568;-66
2022/11/19 01:28:32;;;;;;;;;5.50;5.50;;;;;10.37;65.03;100547.59;4994057;28;45435;-68
2022/11/19 01:30:57;;;;;;;;;5.25;5.25;;;;;10.32;65.48;100551.91;5000252;28;46156;-67
2022/11/19 01:33:23;;;;;;;;;8.00;5.00;;;;;10.29;65.41;100567.63;4989161;28;45520;-69
2022/11/19 01:35:59;;;;;;;;;4.00;4.00;;;;;10.33;65.02;100564.16;4995506;28;45569;-69
2022/11/19 01:38:26;;;;;;;;;5.75;4.25;;;;;10.28;64.95;100561.53;4994319;28;45591;-67
2022/11/19 01:40:52;;;;;;;;;8.25;5.25;;;;;10.23;65.26;100573.72;4991702;28;45512;-68
2022/11/19 01:43:18;;;;;;;;;6.25;3.25;;;;;10.27;65.54;100567.59;4991692;28;45600;-68
2022/11/19 01:45:48;;;;;;;;;5.00;5.00;;;;;10.35;65.08;100584.22;4991624;28;45708;-67
2022/11/19 01:48:31;;;;;;;;;3.75;3.00;;;;;10.25;64.99;100563.22;4991825;28;45501;-68
2022/11/19 01:51:03;;;;;;;;;5.50;5.25;;;;;10.29;65.29;100565.88;4993282;28;46169;-68
2022/11/19 01:53:32;;;;;;;;;9.00;5.50;;;;;10.22;64.81;100561.50;4990462;28;45504;-67
2022/11/19 01:56:02;;;;;;;;;7.75;5.75;;;;;9.98;65.42;100555.34;4998599;28;45627;-67
2022/11/19 01:58:32;;;;;;;;;7.75;5.00;;;;;10.05;66.04;100574.56;4997268;28;45358;-67
2022/11/19 02:00:58;;;;;;;;;9.50;6.75;;;;;10.10;65.42;100574.56;4998213;28;45485;-67
2022/11/19 02:03:26;;;;;;;;;4.00;4.00;;;;;10.11;66.39;100577.19;4996587;28;45547;-66
2022/11/19 02:05:52;;;;;;;;;5.75;5.00;;;;;10.14;65.26;100577.19;4993806;28;45387;-66
2022/11/19 02:08:37;;;;;;;;;9.50;4.50;;;;;10.21;65.25;100585.06;4994590;28;45485;-66
2022/11/19 02:11:29;;;;;;;;;11.75;5.25;;;;;10.08;65.84;100576.31;4994688;28;45500;-66
2022/11/19 02:14:27;;;;;;;;;8.00;5.75;;;;;10.12;65.37;100580.69;4975166;28;46724;-66
2022/11/19 02:17:12;;;;;;;;;3.50;3.25;;;;;10.11;65.67;100579.81;4991463;28;46007;-65
2022/11/19 02:20:16;;;;;;;;;5.50;4.25;;;;;10.11;65.23;100581.56;4995002;28;45644;-66
2022/11/19 02:22:44;;;;;;;;;7.50;4.25;;;;;10.11;65.24;100586.78;4991854;28;46099;-68
2022/11/19 02:25:23;;;;;;;;;6.25;5.00;;;;;10.07;65.83;100575.44;4996262;28;45932;-66
2022/11/19 02:28:27;;;;;;;;;8.75;5.00;;;;;9.88;65.81;100548.38;4991438;28;45560;-66
2022/11/19 02:31:16;;;;;;;;;5.00;3.50;;;;;10.10;65.39;100578.06;4993525;28;45594;-65
2022/11/19 02:34:04;;;;;;;;;6.50;5.00;;;;;10.13;65.46;100580.69;4994552;28;45475;-66
2022/11/19 02:36:41;;;;;;;;;5.00;5.00;;;;;10.08;65.30;100585.03;4976272;28;45709;-67
2022/11/19 02:39:29;;;;;;;;;5.00;4.00;;;;;10.05;65.78;100589.38;4993706;28;45507;-65
2022/11/19 02:42:20;;;;;;;;;7.25;5.25;;;;;10.00;65.78;100578.06;4997088;28;45478;-67
2022/11/19 02:44:58;;;;;;;;;5.00;5.00;;;;;9.83;66.52;100576.28;4996568;28;45563;-68
2022/11/19 02:47:33;;;;;;;;;4.00;4.00;;;;;9.89;66.49;100578.88;4989468;28;45983;-68
2022/11/19 02:50:07;;;;;;;;;7.25;6.25;;;;;9.86;65.88;100571.03;4988287;28;45548;-67
2022/11/19 02:52:34;;;;;;;;;5.25;5.25;;;;;9.63;66.55;100531.72;4992999;28;45689;-66
2022/11/19 02:55:00;;;;;;;;;5.00;5.00;;;;;9.83;66.40;100567.56;4993390;28;46026;-66
2022/11/19 02:57:26;;;;;;;;;5.50;4.25;;;;;9.92;66.61;100578.03;4990575;28;45517;-67
2022/11/19 03:05:43;;;;;;;;;5.25;4.25;;;;;9.77;66.47;100563.16;4993810;28;45535;-67
2022/11/19 03:08:09;;;;;;;;;1.25;1.25;;;;;9.93;66.84;100579.78;4992143;28;45460;-67
2022/11/19 03:10:52;;;;;;;;;6.25;4.00;;;;;9.93;66.82;100578.03;4993239;28;45920;-67
2022/11/19 03:19:24;;;;;;;;;6.50;4.50;;;;;10.14;66.24;100579.81;4988360;28;45396;-65
2022/11/19 03:22:07;;;;;;;;;6.00;3.75;;;;;10.19;66.07;100591.16;4993304;28;45557;-67
2022/11/19 03:24:40;;;;;;;;;4.25;4.00;;;;;10.20;65.80;100576.31;4992904;28;45505;-67
2022/11/19 03:27:23;;;;;;;;;3.75;2.75;;;;;10.12;66.03;100565.84;4991288;28;45727;-65
2022/11/19 03:29:53;;;;;;;;;5.25;3.00;;;;;10.29;65.85;100583.34;4992877;28;45484;-66
2022/11/19 03:32:27;;;;;;;;;3.00;3.00;;;;;10.31;66.32;100585.09;4996013;28;45464;-67
2022/11/19 03:35:00;;;;;;;;;3.75;2.25;;;;;10.25;65.58;100568.47;4997924;28;45438;-68
2022/11/19 03:37:32;;;;;;;;;3.50;3.00;;;;;10.41;65.66;100591.19;4995931;28;45574;-68
2022/11/19 03:40:01;;;;;;;;;2.50;2.25;;;;;10.45;65.16;100598.19;4988729;28;45524;-66
2022/11/19 03:42:28;;;;;;;;;3.75;2.50;;;;;10.39;65.23;100577.22;4990335;28;45459;-67
2022/11/19 03:45:16;;;;;;;;;6.50;4.00;;;;;10.50;64.90;100598.19;4996961;28;45517;-66
2022/11/19 03:47:46;;;;;;;;;3.50;3.00;;;;;10.48;64.74;100600.81;4991925;28;46157;-67
2022/11/19 03:50:43;;;;;;;;;4.00;2.00;;;;;10.50;64.93;100600.81;4989384;28;45538;-65
2022/11/19 03:53:08;;;;;;;;;4.50;4.00;;;;;10.42;65.14;100600.81;4986838;28;45497;-67
2022/11/19 03:55:52;;;;;;;;;3.00;3.00;;;;;10.33;65.78;100598.19;4992981;28;45353;-67
2022/11/19 03:58:18;;;;;;;;;5.25;2.75;;;;;10.39;65.90;100606.03;4991961;28;46345;-69
2022/11/19 04:00:43;;;;;;;;;3.00;3.00;;;;;10.41;65.33;100599.06;4990652;28;45500;-66
2022/11/19 04:03:09;;;;;;;;;5.00;2.75;;;;;10.47;65.52;100601.69;4994396;28;45452;-67
2022/11/19 04:05:35;;;;;;;;;4.25;2.50;;;;;10.50;65.30;100596.44;4997323;28;45489;-67
2022/11/19 04:08:00;;;;;;;;;5.25;3.00;;;;;10.42;65.08;100579.88;4992211;28;46205;-66
2022/11/19 04:10:26;;;;;;;;;2.75;2.75;;;;;10.56;65.27;100606.94;4992396;28;45339;-68
2022/11/19 04:12:52;;;;;;;;;5.25;3.00;;;;;10.39;66.05;100599.06;4981823;28;45676;-65
2022/11/19 04:15:17;;;;;;;;;3.50;2.00;;;;;10.31;65.44;100587.72;4993639;28;45342;-67
2022/11/19 04:17:43;;;;;;;;;3.50;3.50;;;;;10.43;65.54;100607.78;4992003;28;45485;-66
2022/11/19 04:20:09;;;;;;;;;7.25;3.50;;;;;10.39;65.84;100601.69;4993069;28;45382;-67
2022/11/19 04:22:34;;;;;;;;;3.00;3.00;;;;;10.43;65.63;100605.16;4993522;28;45386;-67
2022/11/19 04:25:00;;;;;;;;;2.75;2.75;;;;;10.35;65.67;100589.47;4992989;28;45401;-67
2022/11/19 04:27:25;;;;;;;;;4.00;4.00;;;;;10.49;65.56;100610.41;4992950;28;45283;-67
2022/11/19 04:29:51;;;;;;;;;3.00;3.00;;;;;10.45;65.19;100606.03;4996794;28;45653;-67
2022/11/19 04:32:17;;;;;;;;;2.00;2.00;;;;;10.48;65.14;100613.91;4996678;28;45446;-67
2022/11/19 04:34:42;;;;;;;;;6.00;3.00;;;;;10.52;65.45;100615.66;4997190;28;45425;-66
2022/11/19 04:37:28;;;;;;;;;5.75;3.50;;;;;10.40;66.05;100618.28;4991877;28;45533;-66
2022/11/19 04:39:53;;;;;;;;;4.00;3.00;;;;;10.46;65.44;100625.25;4992271;28;45785;-67
2022/11/19 04:42:19;;;;;;;;;5.00;3.25;;;;;10.50;65.80;100627.88;4996831;28;45335;-66
2022/11/19 04:44:44;;;;;;;;;5.00;4.00;;;;;10.48;65.27;100624.38;4996961;28;45512;-68
2022/11/19 04:47:10;;;;;;;;;5.00;3.00;;;;;10.56;65.34;100632.25;4992984;28;45702;-68
2022/11/19 04:49:36;;;;;;;;;4.75;3.50;;;;;10.36;65.03;100598.19;4992279;28;45583;-66
2022/11/19 04:52:02;;;;;;;;;3.75;3.75;;;;;10.60;64.97;100636.59;4995753;28;45610;-66
2022/11/19 04:54:27;;;;;;;;;4.00;3.00;;;;;10.61;64.90;100641.84;4995672;28;45458;-68
2022/11/19 04:56:53;;;;;;;;;3.75;3.00;;;;;10.64;64.81;100635.72;4993673;28;45781;-66
2022/11/19 04:59:19;;;;;;;;;3.25;3.25;;;;;10.61;64.76;100633.13;4991477;28;45403;-67
2022/11/19 05:01:44;;;;;;;;;6.25;4.00;;;;;10.66;65.11;100640.97;4992084;28;45504;-66
2022/11/19 05:04:10;;;;;;;;;4.00;3.00;;;;;10.63;64.69;100641.84;4995534;28;45682;-67
2022/11/19 05:06:35;;;;;;;;;3.00;2.75;;;;;10.65;65.06;100641.84;4990371;28;45572;-66
2022/11/19 05:09:05;;;;;;;;;2.50;2.50;;;;;10.54;64.77;100623.53;4992960;28;45743;-67
2022/11/19 05:11:30;;;;;;;;;3.50;3.50;;;;;10.65;64.84;100650.56;4996097;28;45486;-66
2022/11/19 05:13:56;;;;;;;;;2.75;2.75;;;;;10.59;64.97;100635.72;4996315;28;45357;-67
2022/11/19 05:16:22;;;;;;;;;4.25;2.75;;;;;10.67;64.78;100637.47;4993220;28;45521;-67
2022/11/19 05:18:47;;;;;;;;;4.25;4.25;;;;;10.68;65.21;100654.91;4993070;28;45482;-69
2022/11/19 05:21:13;;;;;;;;;8.00;6.50;;;;;10.68;64.96;100658.44;4991113;28;46106;-67
2022/11/19 05:23:38;;;;;;;;;5.50;5.00;;;;;10.60;64.94;100642.69;4996787;28;45584;-67
2022/11/19 05:26:04;;;;;;;;;6.00;4.25;;;;;10.65;64.76;100647.94;4994419;28;45465;-65
2022/11/19 05:28:31;;;;;;;;;3.25;3.25;;;;;10.56;64.99;100629.63;4992535;28;45437;-68
2022/11/19 05:30:58;;;;;;;;;2.75;0.00;;;;;10.56;64.71;100633.13;4997591;28;45418;-68
2022/11/19 05:33:24;;;;;;;;;4.75;4.25;;;;;10.58;65.59;100646.19;4999919;28;45386;-68
2022/11/19 05:35:50;;;;;;;;;3.25;3.25;;;;;10.59;64.98;100653.19;4995844;28;46484;-67
2022/11/19 05:38:16;;;;;;;;;3.25;2.50;;;;;10.58;65.43;100661.91;4996065;28;45537;-66
2022/11/19 05:40:44;;;;;;;;;4.00;4.00;;;;;10.55;65.31;100654.06;4995003;28;45605;-66
2022/11/19 05:43:11;;;;;;;;;3.25;3.00;;;;;10.39;65.68;100658.41;4995424;28;45522;-66
2022/11/19 05:45:37;;;;;;;;;4.00;4.00;;;;;10.39;65.99;100654.06;4995067;28;45569;-66
2022/11/19 05:48:03;;;;;;;;;4.25;4.25;;;;;10.21;66.37;100630.44;4998761;28;45497;-66
2022/11/19 05:50:29;;;;;;;;;4.00;4.00;;;;;10.19;66.66;100646.13;4993597;28;45643;-68
2022/11/19 05:52:56;;;;;;;;;5.00;4.00;;;;;10.09;66.67;100636.50;4994751;28;45417;-66
2022/11/19 05:55:21;;;;;;;;;4.00;4.00;;;;;10.10;66.73;100643.47;4994873;28;46432;-67
2022/11/19 05:57:47;;;;;;;;;5.25;5.25;;;;;10.11;66.83;100633.91;4996094;28;45427;-68
2022/11/19 06:00:13;;;;;;;;;5.25;4.00;;;;;10.18;66.76;100651.38;4995928;28;45331;-66
2022/11/19 06:02:39;;;;;;;;;5.00;3.25;;;;;10.18;67.06;100651.38;4984635;28;45449;-66
2022/11/19 06:05:05;;;;;;;;;4.00;4.00;;;;;10.12;67.26;100654.81;4994790;28;45375;-66
2022/11/19 06:07:31;;;;;;;;;6.00;4.25;;;;;10.12;66.74;100652.22;4996182;28;45747;-65
2022/11/19 06:10:00;;;;;;;;;5.50;4.00;;;;;10.05;67.12;100650.44;4994966;28;45465;-67
2022/11/19 06:12:25;;;;;;;;;4.25;4.25;;;;;9.89;67.94;100639.03;4993521;28;45645;-66
2022/11/19 06:14:51;;;;;;;;;4.50;4.50;;;;;9.96;67.83;100655.66;4994192;28;46204;-66
2022/11/19 06:17:16;;;;;;;;;7.75;4.75;;;;;9.87;67.81;100646.03;4993626;28;45340;-68
2022/11/19 06:19:42;;;;;;;;;6.50;4.75;;;;;9.96;67.66;100658.25;4994957;28;45471;-67
2022/11/19 06:22:08;;;;;;;;;6.25;5.00;;;;;9.95;67.56;100660.00;4994359;28;45383;-68
2022/11/19 06:24:34;;;;;;;;;5.25;4.75;;;;;9.98;67.67;100664.38;4997745;28;45476;-68
2022/11/19 06:26:59;;;;;;;;;5.00;5.00;;;;;10.00;67.70;100665.25;5003339;28;45438;-67
2022/11/19 06:29:25;;;;;;;;;9.00;4.75;;;;;9.86;67.78;100665.22;4993626;28;45609;-66
2022/11/19 06:31:50;;;;;;;;;5.50;4.75;;;;;9.80;68.23;100656.47;4996927;28;45604;-65
2022/11/19 06:34:16;;;;;;;;;9.00;5.00;;;;;9.75;68.40;100662.56;4997587;28;45748;-67
2022/11/19 06:36:41;;;;;;;;;5.75;5.75;;;;;9.80;68.49;100674.75;5007595;28;45473;-66
2022/11/19 06:39:08;;;;;;;;;7.75;3.75;;;;;9.83;68.31;100680.03;4994533;28;45485;-65
2022/11/19 06:41:34;;;;;;;;;7.00;5.00;;;;;9.72;68.10;100659.91;4994368;28;45438;-66
2022/11/19 06:43:59;;;;;;;;;6.25;4.25;;;;;9.88;67.94;100679.16;4993502;28;45474;-65
2022/11/19 06:46:25;;;;;;;;;7.25;6.25;;;;;9.66;68.45;100645.97;4997072;28;45502;-67
2022/11/19 06:48:51;;;;;;;;;6.25;5.50;;;;;9.83;68.23;100672.19;5014379;28;45707;-67
2022/11/19 06:51:16;;;;;;;;;5.00;5.00;;;;;9.94;68.15;100688.78;4998334;28;45489;-65
2022/11/19 06:53:42;;;;;;;;;6.50;5.00;;;;;9.90;67.97;100679.19;4997897;28;45504;-66
2022/11/19 06:56:08;;;;;;;;;7.50;5.00;;;;;9.94;67.51;100680.94;4997237;28;45387;-65
2022/11/19 06:58:34;;;;;;;;;6.75;6.00;;;;;10.11;67.70;100710.66;4995436;28;45416;-67
2022/11/19 07:01:00;;;;;;;;;5.00;5.00;;;;;10.11;67.79;100707.19;4993999;28;45470;-66
2022/11/19 07:03:26;;;;;;;;;5.00;5.00;;;;;10.08;67.18;100684.47;4993455;28;46009;-67
2022/11/19 07:05:58;;;;;;;;;4.25;4.25;;;;;10.23;66.96;100703.69;4993219;28;46064;-66
2022/11/19 07:08:26;;;;;;;;;3.75;3.75;;;;;10.23;67.14;100707.22;4989279;28;46848;-67
2022/11/19 07:10:52;;;;;;;;;4.25;4.25;;;;;10.26;66.89;100712.44;4989489;28;45493;-66
2022/11/19 07:13:17;;;;;;;;;3.00;2.00;;;;;10.28;66.87;100720.31;4995960;28;45490;-66
2022/11/19 07:15:43;;;;;;;;;7.25;3.00;;;;;10.24;66.89;100706.31;4993751;28;45531;-65
2022/11/19 07:18:09;;;;;;;;;7.00;4.50;;;;;10.32;66.80;100725.59;4997256;28;45498;-67
2022/11/19 07:20:45;;;;;;;;;5.25;4.00;;;;;10.30;66.45;100722.09;4998042;28;45457;-67
2022/11/19 07:23:12;;;;;;;;;5.00;4.50;;;;;10.34;66.92;100736.06;4991983;28;46243;-66
2022/11/19 07:25:38;;;;;;;;;4.50;3.25;;;;;10.29;66.80;100715.09;4994297;28;45573;-65
2022/11/19 07:28:04;;;;;;;;;5.75;5.75;;;;;10.38;67.01;100730.84;4991415;28;45534;-66
2022/11/19 07:30:30;;;;;;;;;5.50;4.00;;;;;10.40;66.92;100736.09;4987763;28;45485;-65
2022/11/19 07:32:55;;;;;;;;;3.25;3.25;;;;;10.35;66.91;100735.22;4986452;28;45896;-65
2022/11/19 07:35:21;;;;;;;;;6.50;4.25;;;;;10.40;66.60;100734.34;4990900;28;45533;-66
2022/11/19 07:37:47;;;;;;;;;5.25;4.25;;;;;10.45;66.53;100736.09;4994099;28;45462;-68
2022/11/19 07:40:14;;;;;;;;;6.25;4.75;;;;;10.43;66.29;100740.47;4996152;28;46090;-65
2022/11/19 07:42:49;;;;;;;;;9.00;5.50;;;;;10.41;66.38;100740.44;4996522;28;46342;-67
2022/11/19 07:45:17;;;;;;;;;8.00;8.00;;;;;10.45;66.32;100750.06;5002037;28;45481;-65
2022/11/19 07:48:09;;;;;;;;;5.50;5.00;;;;;10.47;66.22;100758.81;4993117;28;45577;-66
2022/11/19 07:50:35;;;;;;;;;4.75;4.50;;;;;10.50;66.62;100752.69;4993392;28;45433;-67
2022/11/19 07:53:01;;;;;;;;;9.00;5.00;;;;;10.47;66.51;100742.22;4991870;28;45625;-66
2022/11/19 07:55:29;;;;;;;;;6.75;6.75;;;;;10.52;66.22;100745.72;4992454;28;45451;-67
2022/11/19 07:57:55;;;;;;;;;7.25;4.25;;;;;10.28;66.44;100728.16;4997144;28;45363;-66
2022/11/19 08:00:20;;;;;;;;;8.25;6.00;;;;;10.47;66.29;100750.06;4992998;28;45739;-66
2022/11/19 08:02:53;;;;;;;;;6.75;5.25;;;;;10.63;65.73;100766.69;4993248;28;45954;-70
2022/11/19 08:05:19;;;;;;;;;7.25;6.50;;;;;10.66;65.93;100764.09;4989792;28;45585;-64
2022/11/19 08:07:52;;;;;;;;;12.50;8.00;;;;;10.73;65.45;100771.97;4989231;28;45575;-67
2022/11/19 08:10:18;;;;;;;;;10.50;8.25;;;;;10.78;65.76;100771.97;4992960;28;45529;-65
2022/11/19 08:13:01;;;;;;;;;6.00;5.25;;;;;10.78;65.17;100775.44;4986966;28;46802;-67
2022/11/19 08:15:28;;;;;;;;;7.75;6.00;;;;;10.85;65.54;100781.59;4981200;28;45534;-65
2022/11/19 08:18:12;;;;;;;;;7.50;6.25;;;;;10.96;65.39;100794.69;4992584;28;45296;-65
2022/11/19 08:20:39;;;;;;;;;7.00;6.25;;;;;10.97;64.96;100791.22;4992620;28;45385;-65
2022/11/19 08:23:05;;;;;;;;;9.00;7.00;;;;;10.97;64.68;100788.59;4988437;28;46531;-67
2022/11/19 08:25:31;;;;;;;;;11.75;7.00;;;;;11.06;64.41;100801.72;4997023;28;45446;-66
2022/11/19 08:27:57;;;;;;;;;13.25;6.75;;;;;11.00;64.52;100780.72;4981728;28;45322;-66
2022/11/19 08:30:23;;;;;;;;;8.50;8.00;;;;;11.10;64.72;100813.06;4990859;28;45786;-66
2022/11/19 08:32:51;;;;;;;;;7.25;5.00;;;;;11.18;64.82;100812.19;4995133;28;46028;-67
2022/11/19 08:35:17;;;;;;;;;9.75;5.00;;;;;11.24;64.41;100813.94;4996416;28;45468;-66
2022/11/19 08:37:43;;;;;;;;;8.00;6.75;;;;;11.29;64.29;100817.44;4996552;28;45455;-65
2022/11/19 08:40:08;;;;;;;;;7.50;5.00;;;;;11.36;63.86;100819.19;4992098;28;45975;-66
2022/11/19 08:45:22;;;;;;;;;6.25;6.25;;;;;11.33;63.64;100799.97;4994149;28;45648;-67
2022/11/19 08:47:47;;;;;;;;;10.25;7.75;;;;;11.47;63.68;100813.94;4997013;28;45821;-66
2022/11/19 08:50:13;;;;;;;;;11.50;7.75;;;;;11.43;63.60;100815.69;4995444;28;45410;-66
2022/11/19 08:52:38;;;;;;;;;10.75;9.00;;;;;11.43;63.28;100806.94;4993192;28;45985;-66
2022/11/19 08:55:04;;;;;;;;;9.50;6.50;;;;;11.37;63.33;100804.34;4994749;28;45666;-66
2022/11/19 08:57:30;;;;;;;;;6.75;5.75;;;;;11.49;63.90;100830.56;4993507;28;45531;-66
2022/11/19 08:59:56;;;;;;;;;5.50;5.00;;;;;11.54;63.76;100834.06;4992045;28;45663;-66
2022/11/19 09:02:21;;;;;;;;;5.00;5.00;;;;;11.55;63.46;100833.16;4996359;28;46192;-66
2022/11/19 09:04:47;;;;;;;;;4.00;4.00;;;;;11.54;63.48;100830.56;4998614;28;45406;-66
2022/11/19 09:07:12;;;;;;;;;4.50;4.50;;;;;11.53;63.35;100832.31;4999930;28;45284;-66
2022/11/19 09:09:38;;;;;;;;;3.50;2.00;;;;;11.57;63.79;100831.41;4999615;28;45431;-66
2022/11/19 09:12:03;;;;;;;;;0.50;0.00;;;;;11.57;63.49;100827.94;4998855;28;45547;-67
2022/11/19 09:14:29;;;;;;;;;5.00;4.00;;;;;11.48;63.65;100814.81;4999159;28;45426;-67
2022/11/19 09:16:55;;;;;;;;;6.50;5.00;;;;;11.50;63.77;100823.56;4999837;28;45513;-67
2022/11/19 09:19:20;;;;;;;;;5.25;3.25;;;;;11.56;63.64;100824.44;4998140;28;45486;-68
2022/11/19 09:21:46;;;;;;;;;5.00;4.50;;;;;11.68;64.34;100834.06;4996033;28;45497;-66
2022/11/19 09:24:11;;;;;;;;;6.50;5.25;;;;;11.72;63.49;100840.16;4997713;28;45442;-66
2022/11/19 09:26:37;;;;;;;;;6.25;6.25;;;;;11.70;63.56;100829.69;4999880;28;45402;-67
2022/11/19 09:29:02;;;;;;;;;7.25;6.50;;;;;11.76;63.23;100841.91;4998678;28;45439;-67
2022/11/19 09:31:28;;;;;;;;;6.25;5.00;;;;;11.74;62.82;100843.66;4998993;28;45520;-66
2022/11/19 09:33:54;;;;;;;;;5.75;4.00;;;;;11.77;62.85;100844.53;4999770;28;45405;-68
2022/11/19 09:36:20;;;;;;;;;4.25;4.25;;;;;11.73;63.12;100837.53;4996991;28;45548;-67
2022/11/19 09:38:47;;;;;;;;;5.25;4.25;;;;;11.82;62.87;100848.03;5010895;28;45534;-65
2022/11/19 09:41:42;;;;;;;;;5.00;3.75;;;;;11.88;63.27;100848.03;4997891;28;45644;-65
2022/11/19 09:44:36;;;;;;;;;6.00;3.00;;;;;11.96;63.23;100852.41;4998001;28;45580;-67
2022/11/19 09:47:24;;;;;;;;;9.25;3.50;;;;;11.99;62.48;100853.28;4993735;28;45466;-67
2022/11/19 09:50:05;;;;;;;;;8.25;4.50;;;;;11.99;62.62;100849.78;4983357;28;45418;-67
2022/11/19 09:52:36;;;;;;;;;8.25;7.25;;;;;12.02;62.07;100852.41;4981292;28;47286;-67
2022/11/19 09:55:02;;;;;;;;;8.25;7.00;;;;;12.03;62.13;100865.53;4995411;28;45512;-67
2022/11/19 09:57:50;;;;;;;;;4.00;4.00;;;;;12.06;62.12;100859.41;4995208;28;45533;-68
2022/11/19 10:00:19;;;;;;;;;6.00;4.00;;;;;11.94;62.21;100836.66;4998315;28;45599;-69
2022/11/19 10:02:45;;;;;;;;;5.25;4.00;;;;;12.06;62.13;100851.53;4997251;28;46872;-66
2022/11/19 10:05:15;;;;;;;;;4.00;4.00;;;;;12.17;62.12;100861.97;4994710;28;45444;-67
2022/11/19 10:08:02;;;;;;;;;4.00;4.00;;;;;12.17;61.33;100848.84;4992110;28;45538;-67
2022/11/19 10:10:41;;;;;;;;;5.00;3.75;;;;;12.35;61.15;100861.94;4994869;28;45474;-68
2022/11/19 10:13:28;;;;;;;;;8.75;5.00;;;;;12.47;61.27;100856.63;4994854;28;45703;-67
2022/11/19 10:16:18;;;;;;;;;4.00;4.00;;;;;12.61;60.52;100861.84;4991734;28;45505;-68
2022/11/19 10:18:52;;;;;;;;;6.00;4.00;;;;;12.73;60.30;100863.53;4989651;28;45372;-67
2022/11/19 10:21:27;;;;;;;;;4.50;4.25;;;;;12.79;60.36;100871.41;4991393;28;45334;-68
2022/11/19 10:24:07;;;;;;;;;7.00;5.25;;;;;12.73;60.42;100842.50;4997952;28;46574;-67
2022/11/19 10:26:39;;;;;;;;;4.00;4.00;;;;;12.91;59.61;100860.81;4998466;28;45459;-67
2022/11/19 10:29:21;;;;;;;;;5.00;5.00;;;;;13.06;59.41;100849.31;4998923;28;45548;-66
2022/11/19 10:31:49;;;;;;;;;4.25;4.25;;;;;13.27;59.05;100850.97;4989251;28;45519;-66
2022/11/19 10:34:22;;;;;;;;;4.00;4.00;;;;;13.60;58.60;100853.38;4997333;28;45415;-67
2022/11/19 10:37:02;;;;;;;;;6.00;5.00;;;;;13.94;57.23;100840.75;4993405;28;45329;-66
2022/11/19 10:39:45;;;;;;;;;7.25;7.25;;;;;14.13;56.64;100831.75;4993714;28;45578;-68
2022/11/19 10:42:28;;;;;;;;;4.00;3.25;;;;;14.84;55.17;100844.97;4994664;28;45480;-68
2022/11/19 10:45:14;;;;;;;;;11.00;6.33;;;;;15.24;54.40;100840.88;4994644;28;45569;-67
2022/11/19 10:47:52;;;;;;;;;7.67;6.33;;;;;15.48;53.27;100848.38;4996798;28;45321;-67
2022/11/19 10:50:23;;;;;;;;;6.33;5.00;;;;;15.52;52.93;100846.59;4993309;28;45742;-68
2022/11/19 10:53:14;;;;;;;;;6.33;5.67;;;;;15.76;52.03;100840.03;4990534;28;45400;-69
2022/11/19 10:55:44;;;;;;;;;6.33;6.33;;;;;15.90;52.19;100829.22;4997604;28;45528;-66
2022/11/19 10:58:09;;;;;;;;;7.67;5.33;;;;;16.14;51.30;100841.09;4993259;28;45657;-67
2022/11/19 11:00:37;;;;;;;;;4.33;4.00;;;;;16.06;50.99;100830.69;4993366;28;45444;-67
2022/11/19 11:03:05;;;;;;;;;6.67;6.33;;;;;16.28;50.84;100844.34;4989719;28;45690;-66
2022/11/19 11:05:52;;;;;;;;;4.33;4.33;;;;;16.87;49.80;100833.44;4986893;28;46078;-66
2022/11/19 11:08:17;;;;;;;;;8.33;5.67;;;;;17.10;49.01;100838.19;4994727;28;45420;-66
2022/11/19 11:10:44;;;;;;;;;6.67;6.00;;;;;16.86;48.95;100826.41;4992769;28;45479;-67
2022/11/19 11:16:18;;;;;;;;;7.33;7.33;;;;;17.00;48.20;100836.66;4993148;28;45900;-66
2022/11/19 11:18:47;;;;;;;;;8.00;7.00;;;;;17.20;48.28;100830.91;4993305;28;45501;-68
2022/11/19 11:21:23;;;;;;;;;7.00;6.33;;;;;17.26;48.28;100843.13;5005255;28;45284;-67
2022/11/19 11:23:54;;;;;;;;;7.00;6.33;;;;;17.13;48.39;100835.50;4988134;28;45451;-67
2022/11/19 11:26:25;;;;;;;;;8.67;5.00;;;;;17.53;48.03;100842.44;4982182;28;45600;-67
2022/11/19 11:29:04;;;;;;;;;7.00;6.00;;;;;18.11;47.12;100834.78;4988154;28;45355;-65
2022/11/19 11:31:43;;;;;;;;;6.67;6.67;;;;;19.27;44.01;100826.94;4983487;28;45622;-67
2022/11/19 11:34:29;;;;;;;;;7.00;5.67;;;;;18.26;45.25;100829.97;4991911;28;45375;-67
2022/11/19 11:36:56;;;;;;;;;7.00;6.00;;;;;17.62;46.69;100829.88;5007775;28;45654;-66
2022/11/19 11:39:26;;;;;;;;;7.67;4.67;;;;;17.24;47.87;100834.34;4996084;28;45413;-65
2022/11/19 11:41:54;;;;;;;;;8.00;6.67;;;;;16.88;48.46;100840.47;4993487;28;45362;-66
2022/11/19 11:44:23;;;;;;;;;6.33;4.67;;;;;16.82;48.80;100832.66;4996901;28;45381;-68
2022/11/19 11:47:11;;;;;;;;;10.33;6.00;;;;;16.89;48.62;100828.97;4992970;28;46099;-67
2022/11/19 11:49:41;;;;;;;;;6.00;4.33;;;;;16.59;49.04;100824.34;4994088;28;45509;-65
2022/11/19 11:52:10;;;;;;;;;6.33;6.00;;;;;16.46;49.28;100837.78;4997358;28;45339;-67
2022/11/19 11:54:37;;;;;;;;;6.33;6.00;;;;;16.64;48.94;100827.75;4997622;28;45489;-67
2022/11/19 11:57:18;;;;;;;;;6.67;5.00;;;;;16.53;48.47;100822.69;4988029;28;46173;-65
2022/11/19 11:59:44;;;;;;;;;8.00;4.33;;;;;16.40;49.13;100826.50;4997373;28;45374;-66
2022/11/19 12:02:29;;;;;;;;;7.33;5.67;;;;;16.62;48.84;100829.56;4989742;28;45525;-66